TimeCST,TemperatureF,Dew PointF,Humidity,Sea Level PressureIn,VisibilityMPH,Wind Direction,Wind SpeedMPH,Gust SpeedMPH,PrecipitationIn,Events,Conditions,WindDirDegrees,DateUTC
12:15 AM,37.4,23.0,56,29.85,10.0,South,11.5,19.6,N/A,,Overcast,190,2011-11-19 06:15:00
12:35 AM,37.4,21.2,52,29.85,10.0,South,9.2,-,N/A,,Overcast,180,2011-11-19 06:35:00
12:55 AM,39.2,21.2,49,29.85,10.0,South,9.2,-,N/A,,Overcast,180,2011-11-19 06:55:00
1:15 AM,39.2,21.2,49,29.85,10.0,South,10.4,18.4,N/A,,Overcast,180,2011-11-19 07:15:00
1:35 AM,37.4,21.2,52,29.85,10.0,South,11.5,16.1,N/A,,Overcast,180,2011-11-19 07:35:00
1:55 AM,37.4,21.2,52,29.85,10.0,South,9.2,-,N/A,,Scattered Clouds,180,2011-11-19 07:55:00
2:15 AM,37.4,23.0,56,29.85,10.0,South,9.2,-,N/A,,Clear,180,2011-11-19 08:15:00
2:35 AM,37.4,23.0,56,29.85,10.0,South,10.4,-,N/A,,Clear,180,2011-11-19 08:35:00
2:55 AM,37.4,23.0,56,29.85,10.0,South,9.2,-,N/A,,Scattered Clouds,180,2011-11-19 08:55:00
3:15 AM,37.4,23.0,56,29.85,10.0,South,10.4,-,N/A,,Mostly Cloudy,180,2011-11-19 09:15:00
3:35 AM,37.4,23.0,56,29.85,10.0,South,9.2,-,N/A,,Overcast,180,2011-11-19 09:35:00
3:55 AM,37.4,23.0,56,29.85,10.0,South,8.1,-,N/A,,Overcast,180,2011-11-19 09:55:00
4:15 AM,37.4,23.0,56,29.85,10.0,South,9.2,-,N/A,,Overcast,180,2011-11-19 10:15:00
4:35 AM,37.4,23.0,56,29.85,10.0,South,9.2,-,N/A,,Overcast,190,2011-11-19 10:35:00
5:45 AM,37.4,23.0,56,29.84,10.0,SSW,11.5,20.7,N/A,,Mostly Cloudy,200,2011-11-19 11:45:00
6:45 AM,35.6,24.8,65,29.84,10.0,South,4.6,-,N/A,,Clear,180,2011-11-19 12:45:00
7:45 AM,37.4,24.8,60,29.85,10.0,South,9.2,-,N/A,,Mostly Cloudy,180,2011-11-19 13:45:00
9:45 AM,42.8,26.6,53,29.83,10.0,South,6.9,-,N/A,,Overcast,190,2011-11-19 15:45:00
10:45 AM,44.6,28.4,53,29.79,10.0,South,9.2,-,N/A,,Overcast,190,2011-11-19 16:45:00
11:45 AM,46.4,30.2,53,29.75,10.0,SSE,11.5,-,N/A,,Overcast,160,2011-11-19 17:45:00
1:45 PM,46.4,33.8,62,29.72,10.0,South,9.2,-,N/A,,Overcast,180,2011-11-19 19:45:00
2:45 PM,46.4,35.6,66,29.70,10.0,South,6.9,-,N/A,,Overcast,170,2011-11-19 20:45:00
3:45 PM,46.4,39.2,76,29.68,10.0,South,9.2,-,N/A,,Overcast,170,2011-11-19 21:45:00
4:45 PM,46.4,39.2,76,29.69,10.0,South,6.9,-,N/A,,Overcast,180,2011-11-19 22:45:00
5:45 PM,48.2,42.8,82,29.69,10.0,SSW,8.1,-,N/A,,Unknown,200,2011-11-19 23:45:00
8:15 PM,50.0,44.6,82,29.70,10.0,SSW,13.8,20.7,N/A,,Overcast,210,2011-11-20 02:15:00
8:35 PM,50.0,44.6,82,29.71,10.0,SSW,11.5,16.1,N/A,,Overcast,210,2011-11-20 02:35:00
8:45 PM,51.8,46.4,82,29.71,10.0,SSW,12.7,-,N/A,,Overcast,200,2011-11-20 02:45:00
8:55 PM,50.0,44.6,82,29.72,10.0,SW,15.0,18.4,N/A,,Overcast,220,2011-11-20 02:55:00
9:15 PM,50.0,44.6,82,29.72,10.0,SSW,9.2,-,N/A,,Overcast,210,2011-11-20 03:15:00
9:35 PM,50.0,44.6,82,29.73,10.0,SW,10.4,18.4,N/A,,Overcast,220,2011-11-20 03:35:00
9:55 PM,50.0,44.6,82,29.73,10.0,SW,10.4,16.1,N/A,,Overcast,230,2011-11-20 03:55:00
10:15 PM,50.0,44.6,82,29.75,10.0,WSW,15.0,20.7,N/A,,Overcast,240,2011-11-20 04:15:00
10:35 PM,46.4,41.0,81,29.77,10.0,WNW,16.1,31.1,N/A,,Overcast,290,2011-11-20 04:35:00
10:55 PM,44.6,39.2,81,29.78,10.0,WNW,11.5,-,N/A,,Overcast,300,2011-11-20 04:55:00
11:15 PM,42.8,39.2,87,29.80,10.0,WNW,11.5,-,N/A,,Overcast,290,2011-11-20 05:15:00
11:35 PM,42.8,39.2,87,29.82,7.0,WNW,13.8,-,N/A,,Overcast,300,2011-11-20 05:35:00